createdAt,value
2022-08-04T06:44:10.936Z,4
2022-08-04T06:46:53.784Z,0
2022-08-04T07:14:47.527Z,4.9
2022-08-04T07:20:37.280Z,6
2022-08-04T07:23:10.391Z,7
2022-08-04T07:30:27.456Z,6.6
2022-08-04T07:36:06.081Z,5.8
2022-08-04T07:40:42.397Z,7.4
2022-08-04T07:45:59.381Z,7.1
2022-08-04T07:50:18.829Z,6.6
2022-08-04T07:55:48.583Z,6
2022-08-04T08:00:20.487Z,7.6
2022-08-04T08:08:32.223Z,8.7
2022-08-04T08:18:14.021Z,6.8
2022-08-04T08:20:35.516Z,8.4
2022-08-04T08:25:38.973Z,6.3
2022-08-04T08:28:20.950Z,6.8
2022-08-04T08:33:02.311Z,9
2022-08-04T08:38:53.303Z,8.6
2022-08-04T08:41:27.367Z,9
2022-08-04T08:45:51.983Z,8.2
2022-08-04T08:48:46.845Z,8.7
2022-08-04T08:51:26.984Z,9.3
2022-08-04T08:59:05.469Z,9.1
2022-08-04T09:01:52.289Z,8
2022-08-04T09:08:45.238Z,7
2022-08-04T09:14:16.784Z,7.6
2022-08-04T09:18:50.468Z,8.8
2022-08-04T09:21:49.892Z,9.1
2022-08-04T09:24:34.602Z,9.5
2022-08-04T09:27:04.965Z,10
2022-08-04T09:34:13.583Z,7.9
2022-08-04T09:36:50.535Z,8.5
2022-08-04T09:41:21.061Z,9.6
2022-08-04T09:47:00.691Z,7.5
2022-08-04T09:49:29.227Z,10.4
2022-08-04T09:54:47.412Z,9
2022-08-04T10:00:11.444Z,10.2
2022-08-04T10:07:33.475Z,8.3
2022-08-04T10:10:14.766Z,7.3
2022-08-04T10:12:41.488Z,9.3
2022-08-04T10:17:55.705Z,10.3
2022-08-04T10:30:32.954Z,9.6
2022-08-04T10:33:12.513Z,10.6
2022-08-04T10:40:48.663Z,13.3
2022-08-04T10:43:33.735Z,10.1
2022-08-04T10:46:04.997Z,8.6
2022-08-04T10:53:16.257Z,8.2
2022-08-04T10:58:16.989Z,8.4
2022-08-04T11:10:52.264Z,8
2022-08-04T11:15:43.072Z,8.8
2022-08-04T11:20:40.107Z,7.4
2022-08-04T11:22:46.986Z,8.5
2022-08-04T11:25:45.355Z,9.5
2022-08-04T11:28:25.506Z,9.8
2022-08-04T11:33:06.471Z,10.1
2022-08-04T11:38:57.672Z,9.4
2022-08-04T11:41:31.498Z,8.8
2022-08-04T11:48:50.730Z,7.8
2022-08-04T11:51:11.623Z,9.1
2022-08-04T11:56:13.632Z,8.4
2022-08-04T11:58:54.719Z,10.2
2022-08-04T12:06:36.408Z,11.8
2022-08-04T12:11:57.259Z,10.3
2022-08-04T12:14:15.959Z,10.6
2022-08-04T12:24:19.244Z,9.3
2022-08-04T12:26:29.985Z,8.3
2022-08-04T12:29:30.262Z,9.2
2022-08-04T12:32:16.138Z,9.6
2022-08-04T12:37:04.492Z,13.2
2022-08-04T12:41:59.253Z,11.2
2022-08-04T12:49:09.193Z,10.4
2022-08-04T12:54:51.728Z,9.4
2022-08-04T12:57:21.629Z,13.5
2022-08-04T13:02:05.893Z,12.1
2022-08-04T13:04:29.339Z,10.1
2022-08-04T13:07:03.736Z,13.2
2022-08-04T13:11:32.263Z,9.4
2022-08-04T13:14:29.075Z,8.4
2022-08-04T13:17:11.226Z,7.8
2022-08-04T13:27:44.105Z,10
2022-08-04T13:32:38.017Z,9.8
2022-08-04T13:37:38.033Z,7.1
2022-08-04T13:40:18.519Z,8.1
2022-08-04T13:44:55.993Z,9.7
2022-08-04T13:50:44.104Z,9.7
2022-08-04T13:55:34.410Z,9.1
2022-08-04T14:00:30.973Z,12.5
2022-08-04T14:07:43.507Z,8.9
2022-08-04T14:10:42.913Z,8.2
2022-08-04T14:13:27.861Z,11.2
2022-08-04T14:20:15.951Z,11.5
2022-08-04T14:23:07.322Z,12
2022-08-04T14:28:06.611Z,13
2022-08-04T14:33:59.854Z,9.5
2022-08-04T14:35:55.114Z,8.8
2022-08-04T14:38:23.719Z,9.7
2022-08-04T14:40:38.114Z,11.6
2022-08-04T14:43:41.758Z,12.5
2022-08-04T14:46:36.121Z,9.5
2022-08-04T14:59:10.138Z,8.8
2022-08-04T15:06:51.632Z,10.2
2022-08-04T15:09:39.087Z,10.1
2022-08-04T15:12:12.247Z,9.1
2022-08-04T15:16:35.378Z,7.3
2022-08-04T15:19:29.267Z,10.6
2022-08-04T15:24:33.776Z,7.4
2022-08-04T15:26:44.466Z,7.9
2022-08-04T15:32:30.569Z,10.1
2022-08-04T15:37:19.051Z,6.7
2022-08-04T15:39:21.788Z,6.9
2022-08-04T15:44:51.231Z,5
2022-08-04T15:47:14.742Z,7
2022-08-04T15:52:22.368Z,8.4
2022-08-04T15:57:35.349Z,8.6
2022-08-04T16:04:41.545Z,7.9
2022-08-04T16:07:17.547Z,7.5
2022-08-04T16:11:46.123Z,8.5
2022-08-04T16:14:42.545Z,9.5
2022-08-04T16:17:24.757Z,6.1
2022-08-04T16:19:52.483Z,8.7
2022-08-04T16:25:08.768Z,7.3
2022-08-04T16:27:57.379Z,6.8
2022-08-04T16:30:31.279Z,11.4
2022-08-04T16:37:51.006Z,7.7
2022-08-04T16:40:36.807Z,7.6
2022-08-04T16:42:57.263Z,8.9
2022-08-04T16:48:09.761Z,7
2022-08-04T16:50:56.596Z,5.7
2022-08-04T16:53:54.059Z,6.4
2022-08-04T16:55:46.531Z,7
2022-08-04T17:00:43.023Z,6.2
2022-08-04T17:03:21.566Z,6.9
2022-08-04T17:10:54.900Z,4
2022-08-04T17:14:01.243Z,6.3
2022-08-04T17:30:25.815Z,0
2022-08-04T17:40:49.900Z,4.4
2022-08-04T17:49:17.304Z,5
2022-08-04T22:33:03.483Z,5.3
